Terminal Aerodrome Forecast
Issued by NWS Topeka, KS

Home | Current Version | Previous Version | Graphics & Text | Print | Product List | Glossary On
Versions: 1 2 3 4 5 6 7 8 9 10 11 12 13 14 15 16 17 18 19 20 21
044
FTUS43 KTOP 230533
TAFTOP
TAF
KTOP 230533Z 2306/2406 04006KT P6SM SCT150
     FM231500 08011G21KT P6SM VCSH OVC070
     FM231800 10012G21KT P6SM BKN060
     FM232200 11010KT P6SM BKN100
     FM240300 15009KT P6SM FEW250=

USA.gov is the U.S. government's official web portal to all federal, state and local government web resources and services.